createdAt,value
2024-03-12T00:01:21.306Z,7.40
2024-03-12T00:03:50.789Z,7.34
2024-03-12T00:06:20.214Z,7.27
2024-03-12T00:08:49.816Z,7.23
2024-03-12T00:11:18.159Z,7.17
2024-03-12T00:13:46.981Z,7.18
2024-03-12T00:16:15.563Z,7.23
2024-03-12T00:18:44.593Z,7.28
2024-03-12T00:21:13.849Z,7.32
2024-03-12T00:23:43.573Z,7.37
2024-03-12T00:26:12.186Z,7.40
2024-03-12T00:28:40.461Z,7.41
2024-03-12T00:31:10.385Z,7.40
2024-03-12T00:33:38.451Z,7.32
2024-03-12T00:36:07.280Z,7.23
2024-03-12T00:38:35.580Z,7.16
2024-03-12T00:41:05.086Z,7.09
2024-03-12T00:43:33.594Z,6.99
2024-03-12T00:46:03.127Z,6.89
2024-03-12T00:48:31.217Z,6.82
2024-03-12T00:50:59.409Z,6.75
2024-03-12T00:53:27.796Z,6.70
2024-03-12T00:55:56.174Z,6.68
2024-03-12T00:58:25.097Z,6.63
2024-03-12T01:00:55.072Z,6.59
2024-03-12T01:03:25.575Z,6.56
2024-03-12T01:05:55.019Z,6.56
2024-03-12T01:08:23.323Z,6.57
2024-03-12T01:10:51.688Z,6.59
2024-03-12T01:13:20.075Z,6.59
2024-03-12T01:15:49.552Z,6.60
2024-03-12T01:18:17.787Z,6.58
2024-03-12T01:20:46.316Z,6.56
2024-03-12T01:23:15.015Z,6.53
2024-03-12T01:25:43.269Z,6.49
2024-03-12T01:28:12.020Z,6.44
2024-03-12T01:30:41.099Z,6.38
2024-03-12T01:33:09.659Z,6.30
2024-03-12T01:35:41.935Z,6.21
2024-03-12T01:38:12.149Z,6.14
2024-03-12T01:40:43.169Z,6.09
2024-03-12T01:43:14.568Z,6.06
2024-03-12T01:45:44.030Z,6.01
2024-03-12T01:48:13.469Z,5.97
2024-03-12T01:50:42.589Z,5.97
2024-03-12T01:53:12.403Z,5.95
2024-03-12T01:55:45.344Z,5.95
2024-03-12T01:58:16.104Z,5.96
2024-03-12T02:00:46.234Z,5.97
2024-03-12T02:03:15.330Z,5.97
2024-03-12T02:05:43.818Z,5.95
2024-03-12T02:08:12.570Z,5.91
2024-03-12T02:10:41.344Z,5.86
2024-03-12T02:13:09.677Z,5.83
2024-03-12T02:15:38.207Z,5.79
2024-03-12T02:18:10.750Z,5.74
2024-03-12T02:20:39.665Z,5.67
2024-03-12T02:23:07.982Z,5.56
2024-03-12T02:25:36.332Z,5.47
2024-03-12T02:28:05.091Z,5.39
2024-03-12T02:30:33.331Z,5.39
2024-03-12T02:33:04.153Z,5.43
2024-03-12T02:35:36.166Z,5.44
2024-03-12T02:38:05.142Z,5.41
2024-03-12T02:40:33.325Z,5.37
2024-03-12T02:43:01.576Z,5.31
2024-03-12T02:45:30.073Z,5.22
2024-03-12T02:47:58.488Z,5.15
2024-03-12T02:50:27.581Z,5.18
2024-03-12T02:52:56.828Z,5.22
2024-03-12T02:55:25.042Z,5.29
2024-03-12T02:57:53.177Z,5.38
2024-03-12T03:00:22.649Z,5.48
2024-03-12T03:02:50.888Z,5.59
2024-03-12T03:05:19.264Z,5.70
2024-03-12T03:07:49.721Z,5.81
2024-03-12T03:10:17.945Z,5.95
2024-03-12T03:12:46.682Z,6.08
2024-03-12T03:15:15.442Z,6.17
2024-03-12T03:17:45.188Z,6.24
2024-03-12T03:20:15.713Z,6.29
2024-03-12T03:22:44.289Z,6.33
2024-03-12T03:25:13.901Z,6.37
2024-03-12T03:27:42.300Z,6.38
2024-03-12T03:30:19.674Z,6.34
2024-03-12T03:32:49.451Z,6.28
2024-03-12T03:35:19.654Z,6.27
2024-03-12T03:37:48.410Z,6.29
2024-03-12T03:40:24.496Z,6.32
2024-03-12T03:42:54.706Z,6.35
2024-03-12T03:45:26.402Z,6.37
2024-03-12T03:47:55.033Z,6.39
2024-03-12T03:50:23.276Z,6.38
2024-03-12T03:52:53.909Z,6.35
2024-03-12T03:55:23.369Z,6.33
2024-03-12T03:57:51.953Z,6.31
2024-03-12T04:00:31.645Z,6.30
2024-03-12T04:03:00.107Z,6.26
2024-03-12T04:05:28.386Z,6.25
2024-03-12T04:07:56.580Z,6.28
2024-03-12T04:10:25.013Z,6.28
2024-03-12T04:12:57.544Z,6.24
2024-03-12T04:15:30.320Z,6.16
2024-03-12T04:17:59.279Z,6.07
2024-03-12T04:20:27.852Z,6.00
2024-03-12T04:22:57.073Z,5.88
2024-03-12T04:25:25.371Z,5.79
2024-03-12T04:27:54.909Z,5.70
2024-03-12T04:30:23.874Z,5.59
2024-03-12T04:32:52.147Z,5.46
2024-03-12T04:35:20.267Z,5.34
2024-03-12T04:37:49.488Z,5.26
2024-03-12T04:40:19.331Z,5.20
2024-03-12T04:42:48.226Z,5.16
2024-03-12T04:45:16.346Z,5.10
2024-03-12T04:47:45.157Z,5.05
2024-03-12T04:50:15.925Z,5.04
2024-03-12T04:52:44.268Z,5.07
2024-03-12T04:55:14.465Z,5.13
2024-03-12T04:57:43.938Z,5.13
2024-03-12T05:00:16.700Z,5.07
2024-03-12T05:02:49.785Z,5.01
2024-03-12T05:05:19.739Z,4.96
2024-03-12T05:07:49.402Z,4.94
2024-03-12T05:10:18.964Z,4.93
2024-03-12T05:12:47.393Z,4.92
2024-03-12T05:15:15.966Z,4.92
2024-03-12T05:17:44.284Z,4.93
2024-03-12T05:20:16.360Z,4.96
2024-03-12T05:22:48.294Z,5.02
2024-03-12T05:25:40.896Z,5.09
2024-03-12T05:28:11.254Z,5.18
2024-03-12T05:30:43.758Z,5.26
2024-03-12T05:33:15.836Z,5.34
2024-03-12T05:35:52.806Z,5.46
2024-03-12T05:38:32.251Z,5.59
2024-03-12T05:41:10.668Z,5.71
2024-03-12T05:43:57.617Z,5.79
2024-03-12T05:46:46.425Z,5.84
2024-03-12T05:49:17.604Z,5.92
2024-03-12T05:51:46.003Z,5.98
2024-03-12T05:54:14.344Z,6.02
2024-03-12T05:56:42.717Z,6.09
2024-03-12T05:59:11.953Z,6.18
2024-03-12T06:01:40.139Z,6.27
2024-03-12T06:04:08.425Z,6.37
2024-03-12T06:06:36.931Z,6.45
2024-03-12T06:09:05.072Z,6.53
2024-03-12T06:11:33.438Z,6.64
2024-03-12T06:14:04.336Z,6.79
2024-03-12T06:16:33.911Z,6.93
2024-03-12T06:19:02.286Z,7.11
2024-03-12T06:21:31.270Z,7.32
2024-03-12T06:23:59.564Z,7.51
2024-03-12T06:26:28.137Z,7.69
2024-03-12T06:28:56.881Z,7.84
2024-03-12T06:31:25.241Z,7.97
2024-03-12T06:33:53.630Z,8.06
2024-03-12T06:36:21.999Z,8.10
2024-03-12T06:38:52.470Z,8.15
2024-03-12T06:41:20.892Z,8.20
2024-03-12T06:43:48.971Z,8.26
2024-03-12T06:46:21.022Z,8.38
2024-03-12T06:48:49.760Z,8.50
2024-03-12T06:51:17.900Z,8.64
2024-03-12T06:53:46.260Z,8.75
2024-03-12T06:56:17.768Z,8.86
2024-03-12T06:58:47.234Z,9.00
2024-03-12T07:01:16.878Z,9.18
2024-03-12T07:03:47.155Z,9.36
2024-03-12T07:06:16.760Z,9.58
2024-03-12T07:08:45.996Z,9.78
2024-03-12T07:11:15.969Z,9.98
2024-03-12T07:13:44.775Z,10.15
2024-03-12T07:16:12.831Z,10.34
2024-03-12T07:18:41.018Z,10.50
2024-03-12T07:21:11.280Z,10.68
2024-03-12T07:23:39.541Z,10.83
2024-03-12T07:26:08.088Z,11.00
2024-03-12T07:28:36.770Z,11.14
2024-03-12T07:31:05.158Z,11.29
2024-03-12T07:33:33.590Z,11.44
2024-03-12T07:36:05.828Z,11.61
2024-03-12T07:38:33.970Z,11.73
2024-03-12T07:41:02.164Z,11.82
2024-03-12T07:43:31.285Z,11.95
2024-03-12T07:45:59.479Z,12.12
2024-03-12T07:48:28.028Z,12.27
2024-03-12T07:50:59.541Z,12.45
2024-03-12T07:53:31.318Z,12.67
2024-03-12T07:56:02.545Z,12.85
2024-03-12T07:58:31.341Z,13.05
2024-03-12T08:01:00.932Z,13.24
2024-03-12T08:03:29.671Z,13.45
2024-03-12T08:05:59.011Z,13.66
2024-03-12T08:08:27.394Z,13.85
2024-03-12T08:10:58.759Z,14.05
2024-03-12T08:13:27.868Z,14.23
2024-03-12T08:15:56.067Z,14.40
2024-03-12T08:18:24.253Z,14.51
2024-03-12T08:20:53.453Z,14.58
2024-03-12T08:23:21.584Z,14.60
2024-03-12T08:25:56.390Z,14.66
2024-03-12T08:28:29.150Z,14.70
2024-03-12T08:31:02.538Z,14.76
2024-03-12T08:33:36.742Z,14.79
2024-03-12T08:36:05.690Z,14.83
2024-03-12T08:38:34.356Z,14.97
2024-03-12T08:41:02.746Z,15.16
2024-03-12T08:43:31.090Z,15.38
2024-03-12T08:45:59.939Z,15.56
2024-03-12T08:48:28.541Z,15.67
2024-03-12T08:50:59.460Z,15.74
2024-03-12T08:53:27.728Z,15.74
2024-03-12T08:55:55.716Z,15.76
2024-03-12T08:58:24.782Z,15.79
2024-03-12T09:00:53.607Z,15.76
2024-03-12T09:03:22.535Z,15.75
2024-03-12T09:05:51.663Z,15.83
2024-03-12T09:08:19.893Z,15.92
2024-03-12T09:10:49.025Z,16.05
2024-03-12T09:13:17.904Z,16.16
2024-03-12T09:15:46.310Z,16.28
2024-03-12T09:18:21.402Z,16.38
2024-03-12T09:20:50.743Z,16.45
2024-03-12T09:23:20.436Z,16.52
2024-03-12T09:25:48.920Z,16.64
2024-03-12T09:28:19.108Z,16.77
2024-03-12T09:30:47.328Z,16.93
2024-03-12T09:33:15.616Z,17.02
2024-03-12T09:35:44.566Z,17.06
2024-03-12T09:38:12.774Z,17.06
2024-03-12T09:40:43.903Z,17.07
2024-03-12T09:43:13.679Z,17.09
2024-03-12T09:45:42.139Z,17.16
2024-03-12T09:48:10.577Z,17.21
2024-03-12T09:50:38.864Z,17.17
2024-03-12T09:53:07.020Z,17.08
2024-03-12T09:55:36.775Z,16.91
2024-03-12T09:58:05.563Z,16.88
2024-03-12T10:00:34.835Z,16.85
2024-03-12T10:03:03.200Z,16.83
2024-03-12T10:05:33.220Z,16.75
2024-03-12T10:08:16.689Z,16.66
2024-03-12T10:10:46.788Z,16.52
2024-03-12T10:13:19.343Z,16.44
2024-03-12T10:15:52.251Z,16.33
2024-03-12T10:18:22.364Z,16.14
2024-03-12T10:20:51.488Z,16.00
2024-03-12T10:23:22.388Z,15.93
2024-03-12T10:25:50.767Z,15.84
2024-03-12T10:28:26.406Z,15.80
2024-03-12T10:31:10.713Z,15.70
2024-03-12T10:33:46.696Z,15.58
2024-03-12T10:36:30.002Z,15.52
2024-03-12T10:38:58.223Z,15.61
2024-03-12T10:41:27.128Z,15.68
2024-03-12T10:44:09.026Z,15.72
2024-03-12T10:46:40.534Z,15.79
2024-03-12T10:49:14.222Z,15.77
2024-03-12T10:51:44.905Z,15.73
2024-03-12T10:54:15.703Z,15.63
2024-03-12T10:56:47.218Z,15.52
2024-03-12T10:59:17.788Z,15.42
2024-03-12T11:01:49.291Z,15.39
2024-03-12T11:04:18.841Z,15.34
2024-03-12T11:06:50.028Z,15.31
2024-03-12T11:09:23.205Z,15.28
2024-03-12T11:11:52.139Z,15.26
2024-03-12T11:14:20.596Z,15.27
2024-03-12T11:16:49.264Z,15.28
2024-03-12T11:19:24.855Z,15.41
2024-03-12T11:21:55.276Z,15.60
2024-03-12T11:24:33.510Z,15.74
2024-03-12T11:27:02.054Z,15.86
2024-03-12T11:30:13.129Z,16.02
2024-03-12T11:32:43.041Z,16.20
2024-03-12T11:35:17.539Z,16.35
2024-03-12T11:38:01.385Z,16.52
2024-03-12T11:40:48.222Z,16.66
2024-03-12T11:43:43.102Z,16.87
2024-03-12T11:46:17.192Z,17.20
2024-03-12T11:48:46.875Z,17.49
2024-03-12T11:51:16.311Z,17.92
2024-03-12T11:53:48.619Z,18.35
2024-03-12T11:56:23.952Z,18.67
2024-03-12T11:58:59.595Z,18.94
2024-03-12T12:01:35.265Z,19.33
2024-03-12T12:04:06.745Z,19.95
2024-03-12T12:06:35.284Z,20.28
2024-03-12T12:09:10.536Z,20.27
2024-03-12T12:11:40.104Z,19.89
2024-03-12T12:14:10.731Z,20.04
2024-03-12T12:16:41.135Z,20.15
2024-03-12T12:19:16.340Z,19.87
2024-03-12T12:21:53.291Z,19.28
2024-03-12T12:24:26.732Z,18.70
2024-03-12T12:26:57.377Z,18.22
2024-03-12T12:29:30.135Z,17.86
2024-03-12T12:31:58.944Z,17.56
2024-03-12T12:34:29.829Z,17.31
2024-03-12T12:36:59.885Z,17.25
2024-03-12T12:39:40.111Z,17.22
2024-03-12T12:42:12.316Z,17.08
2024-03-12T12:44:41.446Z,16.98
2024-03-12T12:47:11.511Z,16.88
2024-03-12T12:49:40.278Z,16.80
2024-03-12T12:52:08.827Z,16.72
2024-03-12T12:54:40.690Z,16.64
2024-03-12T12:57:11.904Z,16.52
2024-03-12T12:59:41.362Z,16.31
2024-03-12T13:02:19.991Z,16.13
2024-03-12T13:04:56.662Z,15.99
2024-03-12T13:07:34.241Z,15.91
2024-03-12T13:10:16.537Z,15.78
2024-03-12T13:12:46.539Z,15.70
2024-03-12T13:15:29.500Z,16.10
2024-03-12T13:17:57.819Z,16.94
2024-03-12T13:20:26.394Z,17.05
2024-03-12T13:22:56.391Z,16.82
2024-03-12T13:25:24.586Z,16.60
2024-03-12T13:27:52.764Z,16.39
2024-03-12T13:30:21.188Z,16.17
2024-03-12T13:32:49.382Z,15.92
2024-03-12T13:35:20.408Z,15.77
2024-03-12T13:37:48.497Z,15.71
2024-03-12T13:40:16.894Z,15.60
2024-03-12T13:42:45.059Z,15.47
2024-03-12T13:45:13.397Z,15.48
2024-03-12T13:47:42.053Z,15.67
2024-03-12T13:50:11.050Z,16.38
2024-03-12T13:52:40.629Z,18.99
2024-03-12T13:55:12.831Z,22.20
2024-03-12T13:57:42.930Z,23.65
2024-03-12T14:00:12.896Z,24.09
2024-03-12T14:02:41.445Z,23.93
2024-03-12T14:05:10.401Z,23.59
2024-03-12T14:07:38.526Z,25.25
2024-03-12T14:10:09.257Z,28.46
2024-03-12T14:12:38.609Z,31.90
2024-03-12T14:15:07.430Z,32.36
2024-03-12T14:17:35.810Z,31.64
2024-03-12T14:20:12.148Z,31.05
2024-03-12T14:22:40.466Z,30.96
2024-03-12T14:25:09.297Z,31.21
2024-03-12T14:27:37.660Z,32.49
2024-03-12T14:30:10.213Z,31.41
2024-03-12T14:32:38.451Z,29.65
2024-03-12T14:35:07.400Z,28.04
2024-03-12T14:37:35.555Z,26.46
2024-03-12T14:40:09.044Z,24.82
2024-03-12T14:42:39.220Z,23.45
2024-03-12T14:45:11.738Z,22.27
2024-03-12T14:47:42.098Z,21.24
2024-03-12T14:50:11.213Z,20.30
2024-03-12T14:52:39.791Z,19.52
2024-03-12T14:55:09.698Z,18.84
2024-03-12T14:57:38.327Z,18.12
2024-03-12T15:00:18.065Z,17.50
2024-03-12T15:02:47.352Z,16.90
2024-03-12T15:05:16.120Z,16.37
2024-03-12T15:07:45.399Z,15.96
2024-03-12T15:10:13.826Z,15.61
2024-03-12T15:12:42.757Z,15.17
2024-03-12T15:15:12.470Z,14.82
2024-03-12T15:17:43.269Z,14.55
2024-03-12T15:20:15.916Z,14.31
2024-03-12T15:22:46.897Z,14.11
2024-03-12T15:25:16.579Z,13.94
2024-03-12T15:27:44.926Z,13.81
2024-03-12T15:30:13.940Z,13.64
2024-03-12T15:32:42.924Z,13.41
2024-03-12T15:35:15.554Z,13.18
2024-03-12T15:37:43.921Z,13.01
2024-03-12T15:40:14.033Z,12.89
2024-03-12T15:42:45.306Z,12.79
2024-03-12T15:45:17.179Z,12.72
2024-03-12T15:47:47.334Z,12.65
2024-03-12T15:50:18.551Z,12.55
2024-03-12T15:52:47.728Z,12.41
2024-03-12T15:55:16.234Z,12.32
2024-03-12T15:57:47.307Z,12.21
2024-03-12T16:00:16.209Z,12.08
2024-03-12T16:02:45.438Z,12.02
2024-03-12T16:05:14.272Z,11.92
2024-03-12T16:07:42.444Z,11.86
2024-03-12T16:10:11.330Z,11.84
2024-03-12T16:12:43.005Z,11.77
2024-03-12T16:15:15.571Z,11.72
2024-03-12T16:17:44.260Z,11.67
2024-03-12T16:20:16.653Z,11.62
2024-03-12T16:22:45.209Z,11.55
2024-03-12T16:25:17.326Z,11.51
2024-03-12T16:27:45.882Z,11.45
2024-03-12T16:30:15.922Z,11.41
2024-03-12T16:32:45.901Z,11.40
2024-03-12T16:35:16.796Z,11.38
2024-03-12T16:37:45.563Z,11.38
2024-03-12T16:40:14.371Z,11.36
2024-03-12T16:42:45.791Z,11.35
2024-03-12T16:45:14.908Z,11.33
2024-03-12T16:47:43.443Z,11.32
2024-03-12T16:50:12.633Z,11.30
2024-03-12T16:52:41.701Z,11.20
2024-03-12T16:55:11.504Z,11.10
2024-03-12T16:57:40.609Z,10.99
2024-03-12T17:00:15.634Z,10.88
2024-03-12T17:02:45.870Z,10.79
2024-03-12T17:05:20.188Z,10.74
2024-03-12T17:07:49.890Z,10.64
2024-03-12T17:10:20.092Z,10.54
2024-03-12T17:12:49.773Z,10.46
2024-03-12T17:15:21.707Z,10.39
2024-03-12T17:17:50.986Z,10.32
2024-03-12T17:20:19.424Z,10.28
2024-03-12T17:22:49.312Z,10.24
2024-03-12T17:25:20.370Z,10.20
2024-03-12T17:27:50.727Z,10.21
2024-03-12T17:30:21.230Z,10.26
2024-03-12T17:32:50.692Z,10.32
2024-03-12T17:35:20.264Z,10.32
2024-03-12T17:37:54.065Z,10.29
2024-03-12T17:40:23.732Z,10.24
2024-03-12T17:42:53.228Z,10.18
2024-03-12T17:45:25.265Z,10.15
2024-03-12T17:47:56.526Z,10.13
2024-03-12T17:50:28.792Z,10.10
2024-03-12T17:53:03.318Z,10.06
2024-03-12T17:55:32.398Z,10.04
2024-03-12T17:58:01.574Z,10.01
2024-03-12T18:00:31.232Z,9.98
2024-03-12T18:03:00.684Z,9.93
2024-03-12T18:05:29.880Z,9.88
2024-03-12T18:08:00.420Z,9.83
2024-03-12T18:10:30.220Z,9.82
2024-03-12T18:12:58.912Z,9.83
2024-03-12T18:15:29.195Z,9.84
2024-03-12T18:17:57.419Z,9.88
2024-03-12T18:20:31.520Z,9.97
2024-03-12T18:23:00.101Z,10.05
2024-03-12T18:25:28.638Z,10.10
2024-03-12T18:27:58.020Z,10.11
2024-03-12T18:30:27.581Z,10.12
2024-03-12T18:32:57.526Z,10.12
2024-03-12T18:35:26.709Z,10.12
2024-03-12T18:37:54.890Z,10.11
2024-03-12T18:40:23.675Z,10.10
2024-03-12T18:42:52.633Z,10.08
2024-03-12T18:45:24.188Z,10.04
2024-03-12T18:47:56.420Z,10.02
2024-03-12T18:50:25.813Z,10.01
2024-03-12T18:52:54.881Z,10.00
2024-03-12T18:55:23.751Z,9.97
2024-03-12T18:57:52.595Z,9.98
2024-03-12T19:00:24.911Z,10.00
2024-03-12T19:02:55.176Z,10.02
2024-03-12T19:05:26.002Z,10.02
2024-03-12T19:07:56.377Z,9.99
2024-03-12T19:10:30.737Z,9.97
2024-03-12T19:13:00.676Z,9.92
2024-03-12T19:15:37.572Z,9.89
2024-03-12T19:18:15.185Z,9.84
2024-03-12T19:20:43.909Z,9.79
2024-03-12T19:23:12.663Z,9.74
2024-03-12T19:25:41.453Z,9.68
2024-03-12T19:28:10.091Z,9.67
2024-03-12T19:30:39.753Z,9.68
2024-03-12T19:33:10.365Z,9.70
2024-03-12T19:35:40.267Z,9.72
2024-03-12T19:38:10.604Z,9.71
2024-03-12T19:40:39.203Z,9.70
2024-03-12T19:43:08.035Z,9.70
2024-03-12T19:45:36.680Z,9.70
2024-03-12T19:48:07.144Z,9.70
2024-03-12T19:50:36.946Z,9.70
2024-03-12T19:53:05.044Z,9.67
2024-03-12T19:55:35.644Z,9.68
2024-03-12T19:58:05.660Z,9.71
2024-03-12T20:00:34.660Z,9.73
2024-03-12T20:03:07.800Z,9.82
2024-03-12T20:05:37.487Z,9.88
2024-03-12T20:08:10.659Z,9.91
2024-03-12T20:10:39.435Z,9.90
2024-03-12T20:13:08.089Z,9.86
2024-03-12T20:15:38.397Z,9.81
2024-03-12T20:18:07.675Z,9.80
2024-03-12T20:20:36.934Z,9.80
2024-03-12T20:23:07.220Z,9.79
2024-03-12T20:25:35.964Z,9.75
2024-03-12T20:28:11.010Z,9.69
2024-03-12T20:30:41.061Z,9.65
2024-03-12T20:33:12.072Z,9.65
2024-03-12T20:35:40.409Z,9.66
2024-03-12T20:38:10.252Z,9.66
2024-03-12T20:40:38.980Z,9.66
2024-03-12T20:43:07.718Z,9.66
2024-03-12T20:45:39.321Z,9.68
2024-03-12T20:48:11.814Z,9.71
2024-03-12T20:50:41.279Z,9.76
2024-03-12T20:53:11.740Z,9.77
2024-03-12T20:55:40.621Z,9.77
2024-03-12T20:58:09.205Z,9.75
2024-03-12T21:00:39.293Z,9.72
2024-03-12T21:03:11.522Z,9.67
2024-03-12T21:05:40.796Z,9.62
2024-03-12T21:08:09.461Z,9.58
2024-03-12T21:10:39.436Z,9.54
2024-03-12T21:13:07.917Z,9.54
2024-03-12T21:15:36.316Z,9.52
2024-03-12T21:18:07.396Z,9.50
2024-03-12T21:20:35.826Z,9.46
2024-03-12T21:23:05.238Z,9.43
2024-03-12T21:25:36.350Z,9.41
2024-03-12T21:28:04.940Z,9.39
2024-03-12T21:30:33.173Z,9.40
2024-03-12T21:33:01.285Z,9.41
2024-03-12T21:35:30.189Z,9.42
2024-03-12T21:37:58.958Z,9.41
2024-03-12T21:40:28.107Z,9.40
2024-03-12T21:42:56.442Z,9.42
2024-03-12T21:45:25.931Z,9.45
2024-03-12T21:47:54.373Z,9.46
2024-03-12T21:50:22.994Z,9.48
2024-03-12T21:52:51.848Z,9.51
2024-03-12T21:55:20.272Z,9.53
2024-03-12T21:57:49.302Z,9.52
2024-03-12T22:00:25.531Z,9.49
2024-03-12T22:02:54.003Z,9.46
2024-03-12T22:05:22.740Z,9.41
2024-03-12T22:07:51.455Z,9.37
2024-03-12T22:10:20.589Z,9.34
2024-03-12T22:12:49.334Z,9.29
2024-03-12T22:15:17.648Z,9.27
2024-03-12T22:17:47.260Z,9.29
2024-03-12T22:20:19.959Z,9.33
2024-03-12T22:22:49.672Z,9.33
2024-03-12T22:25:19.513Z,9.29
2024-03-12T22:27:49.856Z,9.24
2024-03-12T22:30:18.789Z,9.19
2024-03-12T22:32:48.536Z,9.19
2024-03-12T22:35:17.149Z,9.23
2024-03-12T22:37:48.981Z,9.26
2024-03-12T22:40:18.373Z,9.20
2024-03-12T22:42:47.191Z,9.12
2024-03-12T22:45:16.358Z,9.04
2024-03-12T22:47:44.951Z,8.98
2024-03-12T22:50:14.254Z,8.92
2024-03-12T22:52:46.466Z,8.89
2024-03-12T22:55:15.609Z,8.93
2024-03-12T22:57:44.292Z,8.97
2024-03-12T23:00:40.675Z,8.98
2024-03-12T23:03:11.102Z,8.97
2024-03-12T23:05:41.934Z,8.96
2024-03-12T23:08:15.642Z,8.94
2024-03-12T23:10:47.393Z,8.92
2024-03-12T23:13:17.570Z,8.98
2024-03-12T23:15:48.238Z,9.04
2024-03-12T23:18:16.927Z,9.06
2024-03-12T23:20:47.307Z,9.05
2024-03-12T23:23:16.236Z,9.05
2024-03-12T23:25:45.456Z,9.03
2024-03-12T23:28:14.463Z,9.01
2024-03-12T23:30:45.599Z,9.00
2024-03-12T23:33:15.216Z,9.00
2024-03-12T23:35:43.835Z,8.99
2024-03-12T23:38:12.969Z,9.02
2024-03-12T23:40:42.303Z,9.03
2024-03-12T23:43:11.955Z,9.03
2024-03-12T23:45:40.062Z,9.01
2024-03-12T23:48:08.281Z,8.98
2024-03-12T23:50:37.315Z,8.96
2024-03-12T23:53:06.875Z,8.92
2024-03-12T23:55:35.664Z,8.91
2024-03-12T23:58:05.494Z,8.88
